createdAt,value
2019-01-26T00:02:19.312Z,18.07
2019-01-26T00:04:48.060Z,19.77
2019-01-26T00:07:16.772Z,18.47
2019-01-26T00:09:46.053Z,18.70
2019-01-26T00:12:14.768Z,19.87
2019-01-26T00:14:44.066Z,19.47
2019-01-26T00:17:13.417Z,20.03
2019-01-26T00:19:42.732Z,21.07
2019-01-26T00:22:12.068Z,19.67
2019-01-26T00:24:41.394Z,19.23
2019-01-26T00:27:10.674Z,20.20
2019-01-26T00:29:40.014Z,20.70
2019-01-26T00:32:09.380Z,21.03
2019-01-26T00:34:38.704Z,19.83
2019-01-26T00:37:08.047Z,19.93
2019-01-26T00:39:37.324Z,20.20
2019-01-26T00:42:06.660Z,20.57
2019-01-26T00:44:35.979Z,21.53
2019-01-26T00:47:05.280Z,19.60
2019-01-26T00:49:34.597Z,19.97
2019-01-26T00:52:03.936Z,20.73
2019-01-26T00:54:33.220Z,20.53
2019-01-26T00:57:02.968Z,19.20
2019-01-26T00:59:31.636Z,19.80
2019-01-26T01:02:01.018Z,20.57
2019-01-26T01:04:30.329Z,18.83
2019-01-26T01:06:59.611Z,19.17
2019-01-26T01:09:29.203Z,20.40
2019-01-26T01:11:58.484Z,19.20
2019-01-26T01:14:27.844Z,19.17
2019-01-26T01:16:57.132Z,19.57
2019-01-26T01:19:25.854Z,18.97
2019-01-26T01:21:55.202Z,18.67
2019-01-26T01:24:24.432Z,18.03
2019-01-26T01:26:53.721Z,18.67
2019-01-26T01:29:23.056Z,18.70
2019-01-26T01:31:52.394Z,17.13
2019-01-26T01:34:21.111Z,17.37
2019-01-26T01:36:50.444Z,17.17
2019-01-26T01:39:19.787Z,18.20
2019-01-26T01:41:49.171Z,15.90
2019-01-26T01:44:18.501Z,16.80
2019-01-26T01:46:47.838Z,16.67
2019-01-26T01:49:17.167Z,16.37
2019-01-26T01:51:46.450Z,16.10
2019-01-26T01:54:15.817Z,16.73
2019-01-26T01:56:45.110Z,15.87
2019-01-26T01:59:14.396Z,15.13
2019-01-26T02:01:43.111Z,15.90
2019-01-26T02:04:11.807Z,14.27
2019-01-26T02:06:41.148Z,14.90
2019-01-26T02:09:11.325Z,14.50
2019-01-26T02:11:40.663Z,14.07
2019-01-26T02:14:09.964Z,13.97
2019-01-26T02:16:39.338Z,13.70
2019-01-26T02:19:08.658Z,14.83
2019-01-26T02:21:37.932Z,15.03
2019-01-26T02:24:07.272Z,14.73
2019-01-26T02:26:36.572Z,14.10
2019-01-26T02:29:05.275Z,14.43
2019-01-26T02:31:34.628Z,12.83
2019-01-26T02:34:03.933Z,13.80
2019-01-26T02:36:32.656Z,13.47
2019-01-26T02:39:01.994Z,12.80
2019-01-26T02:41:31.280Z,12.93
2019-01-26T02:44:00.608Z,11.87
2019-01-26T02:46:29.888Z,12.77
2019-01-26T02:48:59.535Z,13.03
2019-01-26T02:51:28.832Z,13.57
2019-01-26T02:53:58.171Z,13.80
2019-01-26T02:56:27.490Z,13.87
2019-01-26T02:58:56.770Z,12.43
2019-01-26T03:01:26.076Z,11.63
2019-01-26T03:03:55.442Z,13.00
2019-01-26T03:06:24.756Z,13.43
2019-01-26T03:08:54.051Z,13.23
2019-01-26T03:11:23.368Z,13.30
2019-01-26T03:13:52.766Z,13.67
2019-01-26T03:16:22.059Z,12.90
2019-01-26T03:18:51.395Z,12.67
2019-01-26T03:21:20.687Z,12.63
2019-01-26T03:23:50.652Z,13.07
2019-01-26T03:26:19.976Z,12.80
2019-01-26T03:28:49.309Z,13.63
2019-01-26T03:31:18.597Z,12.53
2019-01-26T03:33:47.980Z,13.37
2019-01-26T03:36:17.279Z,12.77
2019-01-26T03:38:46.609Z,12.67
2019-01-26T03:41:15.956Z,12.67
2019-01-26T03:43:45.284Z,11.77
2019-01-26T03:46:14.573Z,12.93
2019-01-26T03:48:43.968Z,11.27
2019-01-26T03:51:13.252Z,11.10
2019-01-26T03:53:42.582Z,13.20
2019-01-26T03:56:11.862Z,12.17
2019-01-26T03:58:41.687Z,11.83
2019-01-26T04:01:11.012Z,12.20
2019-01-26T04:03:39.739Z,12.83
2019-01-26T04:06:09.051Z,12.57
2019-01-26T04:08:38.338Z,12.03
2019-01-26T04:11:07.062Z,12.50
2019-01-26T04:13:36.351Z,12.83
2019-01-26T04:16:05.979Z,12.37
2019-01-26T04:18:35.304Z,11.80
2019-01-26T04:21:04.638Z,12.30
2019-01-26T04:23:33.306Z,12.23
2019-01-26T04:26:02.038Z,11.47
2019-01-26T04:28:31.377Z,11.67
2019-01-26T04:31:00.074Z,11.80
2019-01-26T04:33:29.400Z,11.37
2019-01-26T04:35:58.721Z,13.40
2019-01-26T04:38:27.407Z,12.93
2019-01-26T04:40:56.712Z,12.70
2019-01-26T04:43:26.018Z,9.93
2019-01-26T04:45:55.351Z,12.07
2019-01-26T04:48:24.641Z,12.27
2019-01-26T04:50:53.953Z,12.40
2019-01-26T04:53:23.276Z,11.70
2019-01-26T04:55:52.560Z,11.47
2019-01-26T04:58:21.926Z,12.63
2019-01-26T05:00:51.305Z,11.53
2019-01-26T05:03:20.597Z,11.23
2019-01-26T05:05:50.315Z,12.13
2019-01-26T05:08:19.668Z,12.03
2019-01-26T05:10:49.008Z,11.27
2019-01-26T05:13:18.353Z,12.50
2019-01-26T05:15:47.673Z,11.93
2019-01-26T05:18:17.003Z,11.43
2019-01-26T05:20:46.501Z,11.97
2019-01-26T05:23:16.913Z,12.00
2019-01-26T05:25:46.264Z,11.43
2019-01-26T05:28:15.555Z,11.47
2019-01-26T05:30:44.889Z,13.00
2019-01-26T05:33:14.192Z,12.23
2019-01-26T05:35:43.489Z,12.97
2019-01-26T05:38:12.809Z,11.93
2019-01-26T05:40:42.128Z,11.97
2019-01-26T05:43:11.424Z,12.37
2019-01-26T05:45:40.761Z,11.53
2019-01-26T05:48:10.094Z,11.57
2019-01-26T05:50:39.416Z,12.63
2019-01-26T05:53:08.712Z,11.73
2019-01-26T05:55:38.050Z,12.73
2019-01-26T05:58:07.387Z,13.00
2019-01-26T06:00:38.458Z,12.50
2019-01-26T06:03:07.944Z,13.17
2019-01-26T06:05:37.267Z,11.63
2019-01-26T06:08:06.580Z,12.00
2019-01-26T06:10:35.916Z,12.57
2019-01-26T06:13:05.221Z,12.90
2019-01-26T06:15:34.553Z,12.87
2019-01-26T06:18:05.452Z,12.60
2019-01-26T06:20:34.831Z,12.03
2019-01-26T06:23:04.178Z,12.27
2019-01-26T06:25:33.464Z,12.77
2019-01-26T06:28:02.790Z,12.43
2019-01-26T06:30:32.076Z,11.87
2019-01-26T06:33:01.407Z,11.13
2019-01-26T06:35:30.689Z,12.93
2019-01-26T06:38:00.033Z,12.70
2019-01-26T06:40:29.348Z,10.70
2019-01-26T06:42:58.708Z,11.50
2019-01-26T06:45:28.035Z,12.20
2019-01-26T06:48:02.093Z,11.83
2019-01-26T06:50:29.995Z,10.80
2019-01-26T06:52:59.281Z,11.03
2019-01-26T06:55:28.637Z,9.77
2019-01-26T06:57:57.928Z,14.73
2019-01-26T07:00:30.903Z,10.37
2019-01-26T07:03:00.623Z,10.60
2019-01-26T07:05:48.901Z,10.13
2019-01-26T07:08:19.873Z,10.13
2019-01-26T07:10:49.194Z,9.90
2019-01-26T07:13:18.544Z,10.67
2019-01-26T07:15:47.846Z,10.30
2019-01-26T07:18:17.169Z,10.07
2019-01-26T07:20:46.488Z,9.13
2019-01-26T07:23:15.828Z,8.93
2019-01-26T07:25:45.718Z,9.23
2019-01-26T07:28:15.080Z,8.30
2019-01-26T07:30:44.397Z,9.27
2019-01-26T07:33:13.726Z,9.00
2019-01-26T07:35:44.144Z,8.30
2019-01-26T07:38:13.956Z,8.53
2019-01-26T07:40:43.821Z,7.60
2019-01-26T07:43:13.169Z,8.47
2019-01-26T07:45:42.533Z,8.13
2019-01-26T07:48:16.801Z,7.60
2019-01-26T07:50:42.964Z,9.03
2019-01-26T07:53:12.320Z,8.57
2019-01-26T07:55:41.690Z,8.13
2019-01-26T07:58:12.059Z,8.80
2019-01-26T08:00:41.400Z,11.07
2019-01-26T08:03:10.745Z,8.37
2019-01-26T08:05:40.101Z,8.00
2019-01-26T08:08:09.972Z,8.57
2019-01-26T08:10:39.352Z,8.10
2019-01-26T08:13:08.782Z,9.37
2019-01-26T08:15:38.180Z,9.40
2019-01-26T08:18:09.172Z,10.53
2019-01-26T08:20:38.513Z,9.17
2019-01-26T08:23:07.947Z,9.73
2019-01-26T08:25:38.356Z,8.33
2019-01-26T08:28:07.704Z,14.40
2019-01-26T08:30:37.048Z,14.03
2019-01-26T08:33:05.812Z,13.33
2019-01-26T08:35:35.192Z,12.33
2019-01-26T08:38:04.915Z,14.10
2019-01-26T08:40:34.244Z,13.27
2019-01-26T08:43:02.961Z,11.27
2019-01-26T08:45:33.279Z,14.80
2019-01-26T08:48:03.693Z,12.77
2019-01-26T08:50:33.043Z,15.83
2019-01-26T08:53:01.820Z,14.00
2019-01-26T08:55:31.140Z,10.23
2019-01-26T08:58:00.471Z,12.73
2019-01-26T09:00:30.342Z,13.00
2019-01-26T09:03:17.163Z,10.40
2019-01-26T09:06:12.543Z,10.10
2019-01-26T09:08:41.324Z,10.50
2019-01-26T09:11:10.838Z,10.07
2019-01-26T09:13:40.176Z,9.57
2019-01-26T09:16:09.515Z,8.97
2019-01-26T09:18:39.168Z,10.20
2019-01-26T09:21:09.095Z,9.37
2019-01-26T09:23:38.430Z,9.27
2019-01-26T09:26:07.860Z,9.10
2019-01-26T09:28:37.205Z,8.53
2019-01-26T09:31:06.527Z,8.67
2019-01-26T09:33:35.904Z,8.53
2019-01-26T09:36:06.267Z,8.50
2019-01-26T09:38:35.676Z,8.40
2019-01-26T09:41:05.675Z,8.47
2019-01-26T09:43:34.983Z,7.83
2019-01-26T09:46:04.900Z,8.53
2019-01-26T09:48:34.316Z,8.20
2019-01-26T09:51:03.683Z,7.10
2019-01-26T09:53:33.071Z,7.17
2019-01-26T09:56:02.420Z,7.60
2019-01-26T09:58:31.856Z,7.57
2019-01-26T10:01:01.340Z,7.60
2019-01-26T10:03:31.740Z,6.37
2019-01-26T10:06:01.072Z,6.73
2019-01-26T10:08:30.420Z,6.13
2019-01-26T10:10:59.720Z,6.10
2019-01-26T10:13:28.596Z,6.30
2019-01-26T10:15:57.892Z,5.27
2019-01-26T10:18:27.205Z,6.13
2019-01-26T10:20:56.621Z,5.90
2019-01-26T10:23:26.516Z,5.83
2019-01-26T10:25:55.832Z,5.47
2019-01-26T10:28:25.113Z,5.97
2019-01-26T10:30:58.472Z,6.17
2019-01-26T10:33:27.818Z,5.80
2019-01-26T10:36:18.898Z,6.27
2019-01-26T10:38:54.317Z,6.23
2019-01-26T10:41:39.187Z,7.20
2019-01-26T10:44:09.481Z,10.37
2019-01-26T10:46:38.814Z,6.20
2019-01-26T10:49:07.564Z,6.87
2019-01-26T10:51:36.282Z,7.23
2019-01-26T10:54:05.689Z,6.30
2019-01-26T10:56:35.008Z,5.87
2019-01-26T10:59:05.096Z,5.97
2019-01-26T11:01:34.371Z,6.10
2019-01-26T11:04:03.692Z,6.70
2019-01-26T11:06:33.062Z,7.63
2019-01-26T11:09:02.425Z,6.97
2019-01-26T11:11:31.780Z,5.83
2019-01-26T11:14:01.101Z,6.67
2019-01-26T11:16:29.764Z,6.87
2019-01-26T11:18:59.051Z,5.70
2019-01-26T11:21:28.389Z,6.63
2019-01-26T11:23:57.711Z,6.03
2019-01-26T11:26:27.044Z,5.93
2019-01-26T11:28:56.346Z,5.27
2019-01-26T11:31:26.295Z,6.47
2019-01-26T11:33:55.676Z,5.70
2019-01-26T11:36:24.552Z,5.83
2019-01-26T11:38:53.883Z,5.70
2019-01-26T11:41:23.204Z,6.03
2019-01-26T11:43:51.892Z,6.27
2019-01-26T11:46:27.492Z,6.10
2019-01-26T11:48:57.926Z,5.23
2019-01-26T11:51:51.812Z,5.33
2019-01-26T11:54:20.565Z,5.60
2019-01-26T11:56:52.654Z,5.70
2019-01-26T11:59:22.032Z,4.77
2019-01-26T12:02:08.483Z,5.33
2019-01-26T12:04:56.211Z,5.53
2019-01-26T12:07:27.855Z,5.20
2019-01-26T12:09:57.124Z,5.57
2019-01-26T12:12:26.437Z,4.97
2019-01-26T12:14:55.225Z,5.17
2019-01-26T12:17:24.561Z,5.40
2019-01-26T12:19:53.825Z,4.27
2019-01-26T12:22:23.188Z,5.10
2019-01-26T12:24:52.544Z,4.80
2019-01-26T12:27:21.825Z,4.77
2019-01-26T12:29:51.144Z,4.93
2019-01-26T12:32:20.467Z,5.10
2019-01-26T12:34:49.744Z,5.30
2019-01-26T12:37:19.044Z,7.17
2019-01-26T12:39:48.361Z,18.67
2019-01-26T12:42:17.632Z,24.73
2019-01-26T12:44:46.972Z,20.80
2019-01-26T12:47:17.050Z,6.80
2019-01-26T12:49:47.075Z,5.43
2019-01-26T12:52:17.472Z,5.40
2019-01-26T12:54:46.811Z,4.13
2019-01-26T12:57:15.487Z,5.07
2019-01-26T12:59:44.812Z,5.17
2019-01-26T13:02:14.164Z,4.67
2019-01-26T13:04:43.553Z,4.77
2019-01-26T13:07:13.822Z,4.97
2019-01-26T13:09:43.151Z,5.23
2019-01-26T13:12:12.582Z,4.33
2019-01-26T13:14:41.941Z,4.57
2019-01-26T13:17:11.284Z,5.10
2019-01-26T13:19:41.740Z,4.97
2019-01-26T13:22:11.082Z,5.07
2019-01-26T13:24:40.417Z,5.07
2019-01-26T13:27:09.764Z,6.43
2019-01-26T13:29:39.140Z,8.57
2019-01-26T13:32:09.531Z,6.00
2019-01-26T13:34:38.848Z,6.47
2019-01-26T13:37:08.197Z,7.70
2019-01-26T13:39:37.536Z,7.37
2019-01-26T13:42:06.856Z,6.40
2019-01-26T13:44:36.155Z,6.53
2019-01-26T13:47:05.884Z,7.67
2019-01-26T13:49:35.163Z,7.13
2019-01-26T13:52:04.937Z,6.70
2019-01-26T13:54:34.242Z,5.33
2019-01-26T13:57:04.019Z,7.27
2019-01-26T13:59:33.347Z,5.90
2019-01-26T14:02:02.626Z,5.97
2019-01-26T14:04:31.988Z,4.90
2019-01-26T14:07:01.312Z,5.63
2019-01-26T14:09:30.883Z,6.00
2019-01-26T14:12:01.208Z,7.00
2019-01-26T14:14:30.488Z,5.20
2019-01-26T14:16:59.816Z,5.10
2019-01-26T14:19:29.168Z,4.83
2019-01-26T14:21:58.497Z,4.63
2019-01-26T14:24:27.775Z,5.47
2019-01-26T14:26:58.273Z,6.33
2019-01-26T14:29:29.805Z,4.80
2019-01-26T14:31:59.128Z,5.70
2019-01-26T14:34:28.494Z,4.73
2019-01-26T14:36:58.926Z,4.73
2019-01-26T14:39:28.186Z,5.30
2019-01-26T14:41:57.497Z,5.07
2019-01-26T14:44:27.096Z,5.30
2019-01-26T14:46:56.398Z,5.30
2019-01-26T14:49:25.843Z,5.63
2019-01-26T14:51:56.582Z,5.80
2019-01-26T14:54:26.016Z,5.17
2019-01-26T14:56:55.374Z,5.63
2019-01-26T14:59:24.800Z,5.37
2019-01-26T15:01:54.229Z,5.30
2019-01-26T15:04:23.520Z,5.27
2019-01-26T15:06:52.844Z,5.73
2019-01-26T15:09:22.116Z,5.23
2019-01-26T15:11:51.445Z,5.67
2019-01-26T15:14:20.724Z,6.00
2019-01-26T15:16:50.043Z,5.83
2019-01-26T15:19:19.383Z,5.57
2019-01-26T15:21:48.666Z,5.77
2019-01-26T15:24:17.985Z,5.90
2019-01-26T15:26:47.295Z,5.63
2019-01-26T15:29:16.617Z,5.60
2019-01-26T15:31:45.893Z,6.40
2019-01-26T15:34:15.168Z,5.43
2019-01-26T15:36:44.500Z,5.70
2019-01-26T15:39:13.765Z,5.93
2019-01-26T15:41:43.071Z,6.43
2019-01-26T15:44:12.476Z,6.13
2019-01-26T15:46:41.822Z,5.67
2019-01-26T15:49:11.167Z,5.57
2019-01-26T15:51:40.529Z,6.47
2019-01-26T15:54:09.937Z,5.90
2019-01-26T15:56:39.324Z,5.93
2019-01-26T15:59:08.702Z,5.33
2019-01-26T16:01:38.085Z,5.70
2019-01-26T16:04:08.265Z,6.10
2019-01-26T16:06:41.803Z,6.10
2019-01-26T16:09:12.274Z,6.10
2019-01-26T16:11:43.039Z,6.00
2019-01-26T16:14:13.430Z,6.33
2019-01-26T16:16:42.832Z,5.93
2019-01-26T16:19:12.238Z,6.33
2019-01-26T16:21:41.640Z,6.63
2019-01-26T16:24:11.041Z,8.00
2019-01-26T16:26:40.395Z,7.37
2019-01-26T16:29:10.129Z,7.90
2019-01-26T16:31:39.489Z,7.30
2019-01-26T16:34:08.820Z,7.63
2019-01-26T16:36:38.152Z,7.17
2019-01-26T16:39:10.704Z,8.33
2019-01-26T16:41:40.156Z,6.93
2019-01-26T16:44:09.503Z,7.40
2019-01-26T16:46:39.832Z,7.90
2019-01-26T16:49:09.180Z,8.13
2019-01-26T16:51:38.504Z,10.50
2019-01-26T16:54:08.904Z,8.07
2019-01-26T16:56:38.340Z,7.83
2019-01-26T16:59:07.696Z,7.90
2019-01-26T17:01:37.092Z,7.63
2019-01-26T17:04:06.460Z,8.60
2019-01-26T17:06:35.883Z,8.60
2019-01-26T17:09:08.941Z,8.47
2019-01-26T17:11:38.256Z,10.53
2019-01-26T17:14:08.027Z,9.70
2019-01-26T17:16:37.443Z,9.20
2019-01-26T17:19:06.888Z,7.77
2019-01-26T17:21:36.360Z,8.27
2019-01-26T17:24:05.732Z,8.90
2019-01-26T17:26:35.103Z,12.83
2019-01-26T17:29:04.407Z,17.37
2019-01-26T17:31:33.832Z,10.37
2019-01-26T17:34:03.231Z,8.83
2019-01-26T17:36:33.544Z,8.50
2019-01-26T17:39:04.572Z,9.33
2019-01-26T17:41:33.878Z,9.63
2019-01-26T17:44:03.301Z,9.27
2019-01-26T17:46:32.662Z,9.77
2019-01-26T17:49:02.001Z,9.67
2019-01-26T17:51:31.355Z,9.10
2019-01-26T17:54:00.782Z,8.50
2019-01-26T17:56:30.100Z,8.73
2019-01-26T17:58:59.886Z,8.70
2019-01-26T18:01:29.175Z,8.80
2019-01-26T18:03:58.488Z,9.27
2019-01-26T18:06:28.425Z,8.67
2019-01-26T18:08:57.124Z,8.23
2019-01-26T18:11:26.540Z,10.20
2019-01-26T18:13:55.889Z,9.33
2019-01-26T18:16:25.188Z,8.77
2019-01-26T18:18:54.535Z,9.73
2019-01-26T18:21:23.891Z,9.47
2019-01-26T18:23:53.309Z,8.73
2019-01-26T18:26:22.643Z,9.27
2019-01-26T18:28:52.044Z,9.43
2019-01-26T18:31:21.397Z,8.40
2019-01-26T18:33:50.744Z,8.13
2019-01-26T18:36:20.118Z,8.90
2019-01-26T18:38:49.436Z,8.70
2019-01-26T18:41:18.801Z,9.17
2019-01-26T18:43:48.143Z,9.40
2019-01-26T18:46:17.557Z,8.83
2019-01-26T18:48:47.363Z,9.60
2019-01-26T18:51:16.716Z,9.03
2019-01-26T18:53:45.468Z,8.70
2019-01-26T18:56:14.861Z,10.40
2019-01-26T18:58:44.251Z,9.97
2019-01-26T19:01:13.624Z,11.73
2019-01-26T19:04:19.271Z,12.00
2019-01-26T19:06:48.572Z,9.93
2019-01-26T19:09:17.924Z,10.63
2019-01-26T19:11:47.324Z,10.80
2019-01-26T19:14:16.689Z,12.40
2019-01-26T19:16:45.452Z,11.60
2019-01-26T19:19:14.779Z,11.40
2019-01-26T19:21:44.168Z,13.07
2019-01-26T19:24:13.560Z,11.83
2019-01-26T19:26:42.924Z,12.77
2019-01-26T19:29:12.306Z,11.93
2019-01-26T19:31:41.702Z,14.17
2019-01-26T19:34:11.129Z,14.10
2019-01-26T19:36:40.487Z,13.77
2019-01-26T19:39:09.314Z,12.87
2019-01-26T19:41:38.024Z,12.57
2019-01-26T19:44:07.476Z,12.63
2019-01-26T19:46:36.777Z,13.77
2019-01-26T19:49:06.205Z,13.30
2019-01-26T19:51:35.647Z,14.73
2019-01-26T19:54:07.435Z,14.70
2019-01-26T19:56:37.119Z,13.50
2019-01-26T19:59:05.888Z,12.93
2019-01-26T20:01:35.304Z,14.53
2019-01-26T20:04:06.383Z,12.70
2019-01-26T20:06:35.848Z,14.23
2019-01-26T20:09:09.552Z,14.07
2019-01-26T20:11:39.419Z,15.87
2019-01-26T20:14:09.484Z,15.30
2019-01-26T20:16:38.917Z,16.63
2019-01-26T20:19:08.365Z,16.33
2019-01-26T20:21:37.820Z,16.27
2019-01-26T20:24:07.601Z,16.50
2019-01-26T20:26:37.073Z,14.33
2019-01-26T20:29:06.501Z,14.83
2019-01-26T20:31:36.029Z,13.20
2019-01-26T20:34:05.840Z,13.00
2019-01-26T20:36:35.265Z,11.97
2019-01-26T20:39:08.832Z,14.50
2019-01-26T20:41:38.835Z,14.60
2019-01-26T20:44:08.227Z,13.67
2019-01-26T20:46:37.663Z,12.63
2019-01-26T20:49:07.092Z,15.00
2019-01-26T20:51:35.888Z,13.00
2019-01-26T20:54:05.719Z,12.70
2019-01-26T20:56:35.289Z,12.97
2019-01-26T20:59:07.216Z,12.90
2019-01-26T21:01:35.969Z,18.47
2019-01-26T21:04:05.834Z,18.80
2019-01-26T21:06:35.373Z,22.80
2019-01-26T21:09:09.315Z,17.53
2019-01-26T21:11:38.868Z,24.90
2019-01-26T21:14:08.496Z,25.80
2019-01-26T21:16:37.873Z,18.73
2019-01-26T21:19:07.312Z,18.87
2019-01-26T21:21:36.918Z,23.67
2019-01-26T21:24:05.715Z,18.23
2019-01-26T21:26:37.088Z,15.67
2019-01-26T21:29:05.881Z,18.97
2019-01-26T21:31:34.715Z,16.03
2019-01-26T21:34:04.457Z,15.40
2019-01-26T21:36:33.890Z,12.40
2019-01-26T21:39:04.887Z,11.67
2019-01-26T21:41:35.315Z,10.57
2019-01-26T21:44:05.441Z,10.53
2019-01-26T21:46:34.866Z,10.37
2019-01-26T21:49:04.388Z,9.63
2019-01-26T21:51:38.989Z,9.23
2019-01-26T21:54:05.501Z,9.87
2019-01-26T21:56:34.933Z,9.17
2019-01-26T21:59:05.032Z,9.00
2019-01-26T22:01:34.364Z,10.13
2019-01-26T22:04:03.778Z,9.57
2019-01-26T22:06:33.205Z,9.40
2019-01-26T22:09:03.339Z,9.20
2019-01-26T22:11:33.183Z,9.10
2019-01-26T22:14:02.643Z,9.33
2019-01-26T22:16:31.571Z,7.47
2019-01-26T22:19:00.962Z,9.10
2019-01-26T22:21:31.236Z,8.90
2019-01-26T22:24:01.839Z,9.03
2019-01-26T22:26:31.542Z,9.20
2019-01-26T22:29:00.905Z,9.47
2019-01-26T22:31:30.252Z,10.37
2019-01-26T22:34:00.032Z,8.77
2019-01-26T22:36:29.441Z,9.13
2019-01-26T22:38:58.809Z,8.43
2019-01-26T22:41:28.151Z,8.83
2019-01-26T22:43:56.882Z,8.77
2019-01-26T22:46:26.244Z,7.43
2019-01-26T22:48:54.947Z,8.67
2019-01-26T22:51:24.244Z,9.37
2019-01-26T22:53:53.584Z,8.90
2019-01-26T22:56:22.869Z,8.73
2019-01-26T22:58:52.245Z,9.10
2019-01-26T23:01:41.925Z,8.07
2019-01-26T23:04:32.627Z,7.83
2019-01-26T23:07:16.184Z,8.17
2019-01-26T23:10:15.136Z,7.10
2019-01-26T23:13:16.324Z,7.40
2019-01-26T23:16:29.864Z,7.20
2019-01-26T23:19:16.572Z,7.30
2019-01-26T23:22:23.656Z,7.03
2019-01-26T23:24:59.904Z,12.27
2019-01-26T23:27:56.664Z,6.67
2019-01-26T23:31:08.675Z,6.83
2019-01-26T23:33:37.968Z,6.43
2019-01-26T23:36:07.253Z,6.27
2019-01-26T23:38:36.970Z,7.10
2019-01-26T23:41:06.788Z,7.13
2019-01-26T23:43:36.071Z,6.50
2019-01-26T23:46:06.217Z,6.60
2019-01-26T23:48:35.549Z,7.17
2019-01-26T23:51:05.323Z,6.10
2019-01-26T23:53:34.657Z,6.33
2019-01-26T23:56:03.976Z,6.23
2019-01-26T23:58:32.696Z,6.07
